Time;durP1;ratioP1;P1;durP2;ratioP2;P2;SDS_P1;SDS_P2;PMS_P1;PMS_P2;Temp;Humidity;BMP_temperature;BMP_pressure;BME280_temperature;BME280_humidity;BME280_pressure;Samples;Min_cycle;Max_cycle;Signal;HPM_P1;HPM_P2
2022/09/15 00:01:23;;;;;;;3.30;1.87;;;17.20;99.90;;;;;;5075701;28;20302;-82
2022/09/15 00:03:51;;;;;;;2.67;1.60;;;17.20;99.90;;;;;;5076393;28;20334;-83
2022/09/15 00:06:20;;;;;;;4.43;1.57;;;17.20;99.90;;;;;;5075742;28;20214;-81
2022/09/15 00:08:48;;;;;;;5.90;1.90;;;17.20;99.90;;;;;;5077290;28;20231;-83
2022/09/15 00:11:18;;;;;;;3.37;1.77;;;17.20;99.90;;;;;;5074870;28;20215;-80
2022/09/15 00:13:48;;;;;;;6.23;2.03;;;17.10;99.90;;;;;;5076273;28;20208;-80
2022/09/15 00:16:19;;;;;;;3.13;1.90;;;17.10;99.90;;;;;;5084876;28;20203;-80
2022/09/15 00:18:48;;;;;;;2.73;1.40;;;17.10;99.90;;;;;;5075704;28;20302;-81
2022/09/15 00:21:19;;;;;;;5.20;1.80;;;17.10;99.90;;;;;;5075763;28;20212;-82
2022/09/15 00:23:48;;;;;;;3.07;1.87;;;17.10;99.90;;;;;;5075602;28;20664;-81
2022/09/15 00:26:18;;;;;;;3.87;1.80;;;17.00;99.90;;;;;;5096024;28;20226;-82
2022/09/15 00:28:46;;;;;;;4.03;1.80;;;17.10;99.90;;;;;;5095828;28;20194;-82
2022/09/15 00:31:18;;;;;;;2.47;1.80;;;17.10;99.90;;;;;;5095412;28;20207;-80
2022/09/15 00:33:48;;;;;;;3.80;1.80;;;17.10;99.90;;;;;;5090951;28;20257;-78
2022/09/15 00:36:18;;;;;;;5.37;1.90;;;17.10;99.90;;;;;;5083885;28;20215;-81
2022/09/15 00:38:46;;;;;;;5.93;1.90;;;17.10;99.90;;;;;;5083621;28;20211;-79
2022/09/15 00:41:17;;;;;;;2.90;1.80;;;17.10;99.90;;;;;;5080208;28;20226;-83
2022/09/15 00:43:49;;;;;;;4.67;1.90;;;17.20;99.90;;;;;;5076528;28;20253;-83
2022/09/15 00:46:21;;;;;;;3.77;1.80;;;17.10;99.90;;;;;;5074396;28;20235;-80
2022/09/15 00:48:59;;;;;;;5.03;2.10;;;17.10;99.90;;;;;;5077026;28;20208;-84
2022/09/15 00:51:36;;;;;;;4.13;1.90;;;17.10;99.90;;;;;;5074836;28;20298;-82
2022/09/15 00:54:09;;;;;;;4.50;1.90;;;17.00;99.90;;;;;;5074972;28;20192;-83
2022/09/15 00:56:42;;;;;;;2.90;1.67;;;17.00;99.90;;;;;;5077836;28;20221;-82
2022/09/15 00:59:15;;;;;;;3.17;1.67;;;17.00;99.90;;;;;;5075038;28;20199;-84
2022/09/15 01:01:47;;;;;;;4.07;1.80;;;17.00;99.90;;;;;;5074617;28;20595;-83
2022/09/15 01:04:16;;;;;;;4.30;1.90;;;17.00;99.90;;;;;;5073919;28;20232;-83
2022/09/15 01:06:49;;;;;;;5.27;2.20;;;16.90;99.90;;;;;;5073708;28;20214;-82
2022/09/15 01:09:21;;;;;;;4.87;2.00;;;16.90;99.90;;;;;;5087443;28;20677;-81
2022/09/15 01:11:49;;;;;;;5.10;1.77;;;16.90;99.90;;;;;;5094486;28;20199;-81
2022/09/15 01:14:21;;;;;;;4.87;1.70;;;16.90;99.90;;;;;;5093966;28;20664;-83
2022/09/15 01:16:58;;;;;;;5.43;1.90;;;16.90;99.90;;;;;;5093989;28;20210;-82
2022/09/15 01:20:07;;;;;;;4.33;1.97;;;16.90;99.90;;;;;;5073748;28;20206;-82
2022/09/15 01:22:42;;;;;;;3.63;1.90;;;16.90;99.90;;;;;;5074402;28;20212;-82
2022/09/15 01:25:26;;;;;;;4.60;1.80;;;16.90;99.90;;;;;;5079191;28;20219;-82
2022/09/15 01:28:36;;;;;;;4.50;1.80;;;16.90;99.90;;;;;;5080492;28;20218;-79
2022/09/15 01:31:12;;;;;;;3.00;1.70;;;16.90;99.90;;;;;;5072932;28;20214;-82
2022/09/15 01:33:46;;;;;;;2.70;1.60;;;17.00;99.90;;;;;;5073542;28;20187;-81
2022/09/15 01:36:20;;;;;;;3.97;1.93;;;16.90;99.90;;;;;;5074726;28;20370;-82
2022/09/15 01:38:55;;;;;;;3.00;1.57;;;17.00;99.90;;;;;;5073294;28;20219;-81
2022/09/15 01:41:27;;;;;;;2.87;1.70;;;16.90;99.90;;;;;;5073397;28;20214;-80
2022/09/15 01:44:02;;;;;;;3.83;1.70;;;17.00;99.90;;;;;;5071314;28;20630;-81
2022/09/15 01:46:34;;;;;;;4.90;1.80;;;17.00;99.90;;;;;;5075737;28;20234;-81
2022/09/15 01:49:04;;;;;;;5.03;1.67;;;17.00;99.90;;;;;;5072031;28;20348;-81
2022/09/15 01:51:34;;;;;;;2.83;1.80;;;17.00;99.90;;;;;;5077602;28;20633;-81
2022/09/15 01:54:04;;;;;;;5.03;1.70;;;17.00;99.90;;;;;;5093117;28;20724;-81
2022/09/15 01:56:33;;;;;;;2.37;1.80;;;17.00;99.90;;;;;;5092572;28;20683;-82
2022/09/15 01:59:01;;;;;;;2.13;1.80;;;17.00;99.90;;;;;;5089877;28;20687;-81
2022/09/15 02:01:39;;;;;;;3.67;1.60;;;17.00;99.90;;;;;;5090675;28;20208;-82
2022/09/15 02:04:16;;;;;;;3.53;1.70;;;17.00;99.90;;;;;;5075199;28;20187;-80
2022/09/15 02:06:52;;;;;;;3.57;1.60;;;16.90;99.90;;;;;;5075018;28;20218;-80
2022/09/15 02:09:23;;;;;;;4.27;1.60;;;16.90;99.90;;;;;;5074647;28;20231;-83
2022/09/15 02:12:01;;;;;;;3.97;1.70;;;16.90;99.90;;;;;;5078576;28;20215;-80
2022/09/15 02:14:43;;;;;;;4.80;1.70;;;16.90;99.90;;;;;;5092980;28;20213;-79
2022/09/15 02:17:16;;;;;;;3.33;1.80;;;16.90;99.90;;;;;;5095859;28;20198;-79
2022/09/15 02:19:48;;;;;;;1.60;1.50;;;16.80;99.90;;;;;;5093249;28;20211;-79
2022/09/15 02:22:22;;;;;;;3.67;1.60;;;16.80;99.90;;;;;;5073103;28;20207;-80
2022/09/15 02:24:55;;;;;;;5.07;1.90;;;16.80;99.90;;;;;;5074454;28;20196;-82
2022/09/15 02:27:28;;;;;;;4.27;1.90;;;16.80;99.90;;;;;;5072884;28;20196;-81
2022/09/15 02:30:04;;;;;;;5.37;1.93;;;16.80;99.90;;;;;;5074063;28;20203;-81
2022/09/15 02:32:36;;;;;;;4.23;1.90;;;16.80;99.90;;;;;;5072768;28;20203;-81
2022/09/15 02:35:07;;;;;;;3.40;1.83;;;16.80;99.90;;;;;;5072264;28;20634;-80
2022/09/15 02:37:36;;;;;;;2.70;1.67;;;16.80;99.90;;;;;;5073820;28;20215;-81
2022/09/15 02:40:06;;;;;;;3.87;1.80;;;16.80;99.90;;;;;;5073359;28;20203;-78
2022/09/15 02:42:35;;;;;;;2.20;1.60;;;16.70;99.90;;;;;;5074091;28;20264;-79
2022/09/15 02:45:04;;;;;;;3.03;1.97;;;16.70;99.90;;;;;;5073907;28;20215;-80
2022/09/15 02:47:34;;;;;;;2.73;1.70;;;16.70;99.90;;;;;;5073158;28;20324;-80
2022/09/15 02:50:02;;;;;;;5.37;1.80;;;16.70;99.90;;;;;;5078907;28;20211;-80
2022/09/15 02:52:30;;;;;;;6.70;1.90;;;16.70;99.90;;;;;;5093676;28;20206;-81
2022/09/15 02:54:59;;;;;;;3.80;1.97;;;16.70;99.90;;;;;;5092319;28;20223;-79
2022/09/15 02:57:27;;;;;;;3.93;1.70;;;16.60;99.90;;;;;;5073204;28;20204;-83
2022/09/15 03:00:13;;;;;;;2.67;1.70;;;16.60;99.90;;;;;;5073242;28;20265;-82
2022/09/15 03:02:46;;;;;;;3.27;1.60;;;16.70;99.90;;;;;;5075062;28;20574;-82
2022/09/15 03:05:15;;;;;;;3.47;1.70;;;16.70;99.90;;;;;;5077379;28;20214;-82
2022/09/15 03:07:43;;;;;;;2.33;1.80;;;16.60;99.90;;;;;;5076521;28;20586;-81
2022/09/15 03:10:12;;;;;;;3.30;1.90;;;16.60;99.90;;;;;;5076276;28;20223;-82
2022/09/15 03:12:42;;;;;;;3.77;2.00;;;16.60;99.90;;;;;;5092032;28;20216;-83
2022/09/15 03:15:12;;;;;;;2.63;1.77;;;16.60;99.90;;;;;;5084546;28;20594;-82
2022/09/15 03:17:43;;;;;;;6.47;2.00;;;16.60;99.90;;;;;;5076454;28;20223;-79
2022/09/15 03:20:13;;;;;;;4.07;1.87;;;16.70;99.90;;;;;;5077257;28;20218;-83
2022/09/15 03:22:41;;;;;;;2.60;1.83;;;16.70;99.90;;;;;;5076511;28;20234;-78
2022/09/15 03:25:10;;;;;;;4.40;1.73;;;16.70;99.90;;;;;;5076521;28;20725;-81
2022/09/15 03:27:38;;;;;;;4.40;1.70;;;16.80;99.90;;;;;;5076415;28;20720;-81
2022/09/15 03:30:10;;;;;;;2.57;1.80;;;16.80;99.90;;;;;;5075409;28;20211;-81
2022/09/15 03:32:38;;;;;;;4.53;1.80;;;16.70;99.90;;;;;;5077116;28;20267;-80
2022/09/15 03:35:08;;;;;;;3.50;1.90;;;16.80;99.90;;;;;;5076153;28;20204;-83
2022/09/15 03:37:36;;;;;;;2.23;1.80;;;16.80;99.90;;;;;;5076200;28;20196;-83
2022/09/15 03:40:05;;;;;;;5.07;1.73;;;16.80;99.90;;;;;;5075379;28;20231;-85
2022/09/15 03:42:33;;;;;;;4.50;1.73;;;16.80;99.90;;;;;;5076681;28;20243;-82
2022/09/15 03:45:02;;;;;;;2.70;1.60;;;16.80;99.90;;;;;;5105953;28;20299;-81
2022/09/15 03:47:32;;;;;;;3.60;1.63;;;16.80;99.90;;;;;;5076346;28;20231;-82
2022/09/15 03:50:00;;;;;;;4.57;1.80;;;16.80;99.90;;;;;;5076566;28;20211;-81
2022/09/15 03:52:31;;;;;;;2.53;1.33;;;16.80;99.90;;;;;;5075056;28;20212;-80
2022/09/15 03:55:03;;;;;;;3.00;1.50;;;16.90;99.90;;;;;;5084289;28;20210;-82
2022/09/15 03:57:31;;;;;;;3.97;1.60;;;16.80;99.90;;;;;;5095839;28;20207;-80
2022/09/15 03:59:59;;;;;;;3.97;1.60;;;16.90;99.90;;;;;;5095308;28;20207;-81
2022/09/15 04:02:27;;;;;;;3.70;1.70;;;16.90;99.90;;;;;;5095511;28;20210;-80
2022/09/15 04:04:55;;;;;;;2.10;1.50;;;16.90;99.90;;;;;;5077717;28;20264;-79
2022/09/15 04:07:23;;;;;;;4.63;1.60;;;17.00;99.90;;;;;;5075090;28;20230;-82
2022/09/15 04:09:53;;;;;;;3.27;1.70;;;17.00;99.90;;;;;;5077599;28;20226;-81
2022/09/15 04:12:21;;;;;;;2.77;1.53;;;17.10;99.90;;;;;;5094757;28;20508;-85
2022/09/15 04:14:49;;;;;;;2.67;1.60;;;17.10;99.90;;;;;;5094158;28;20217;-82
2022/09/15 04:17:17;;;;;;;2.67;1.60;;;17.10;99.90;;;;;;5094730;28;20203;-79
2022/09/15 04:19:47;;;;;;;3.00;1.53;;;17.10;99.90;;;;;;5094113;28;20210;-80
2022/09/15 04:22:15;;;;;;;2.23;1.50;;;17.10;99.90;;;;;;5095172;28;20477;-80
2022/09/15 04:24:46;;;;;;;3.57;1.77;;;17.20;99.90;;;;;;5094844;28;20214;-80
2022/09/15 04:27:16;;;;;;;3.77;1.80;;;17.20;99.90;;;;;;5076857;28;20267;-85
2022/09/15 04:29:45;;;;;;;2.57;1.40;;;17.20;99.90;;;;;;5075007;28;20208;-84
2022/09/15 04:32:13;;;;;;;3.80;1.63;;;17.20;99.90;;;;;;5075522;28;20212;-80
2022/09/15 04:34:41;;;;;;;3.00;1.70;;;17.20;99.90;;;;;;5074542;28;20560;-80
2022/09/15 04:37:10;;;;;;;1.80;1.30;;;17.20;99.90;;;;;;5075413;28;20211;-80
2022/09/15 04:39:38;;;;;;;2.40;1.60;;;17.10;99.90;;;;;;5074366;28;20207;-81
2022/09/15 04:42:06;;;;;;;1.67;1.33;;;17.10;99.90;;;;;;5074115;28;20231;-79
2022/09/15 04:44:36;;;;;;;4.20;1.70;;;17.10;99.90;;;;;;5074031;28;20212;-82
2022/09/15 04:47:05;;;;;;;3.60;1.50;;;17.00;99.90;;;;;;5094905;28;20222;-81
2022/09/15 04:49:33;;;;;;;5.70;1.40;;;17.10;99.90;;;;;;5094055;28;20249;-83
2022/09/15 04:52:01;;;;;;;2.57;1.70;;;17.00;99.90;;;;;;5080200;28;20207;-81
2022/09/15 04:54:36;;;;;;;3.27;1.57;;;17.00;99.90;;;;;;5074525;28;20200;-81
2022/09/15 04:57:05;;;;;;;2.03;1.47;;;17.00;99.90;;;;;;5078745;28;20210;-79
2022/09/15 04:59:33;;;;;;;3.37;1.40;;;17.00;99.90;;;;;;5074258;28;20617;-82
2022/09/15 05:02:03;;;;;;;3.53;1.40;;;17.00;99.90;;;;;;5074261;28;20203;-79
2022/09/15 05:04:31;;;;;;;2.53;1.40;;;17.10;99.90;;;;;;5074114;28;20208;-80
2022/09/15 05:06:59;;;;;;;3.97;1.67;;;17.10;99.90;;;;;;5092555;28;20227;-83
2022/09/15 05:09:28;;;;;;;3.37;1.37;;;17.10;99.90;;;;;;5094043;28;20214;-81
2022/09/15 05:11:56;;;;;;;2.93;1.70;;;17.10;99.90;;;;;;5094317;28;20211;-80
2022/09/15 05:14:24;;;;;;;2.53;1.70;;;17.10;99.90;;;;;;5079419;28;20207;-82
2022/09/15 05:16:52;;;;;;;2.57;1.30;;;17.20;99.90;;;;;;5079671;28;20560;-80
2022/09/15 05:19:22;;;;;;;3.77;1.30;;;17.20;99.90;;;;;;5079836;28;20661;-81
2022/09/15 05:21:50;;;;;;;2.73;1.50;;;17.30;99.90;;;;;;5073950;28;20219;-78
2022/09/15 05:24:18;;;;;;;3.13;1.70;;;17.30;99.90;;;;;;5073418;28;20211;-86
2022/09/15 05:26:46;;;;;;;3.03;1.27;;;17.30;99.90;;;;;;5072964;28;20239;-81
2022/09/15 05:29:14;;;;;;;3.23;1.33;;;17.30;99.90;;;;;;5072112;28;20242;-79
2022/09/15 05:31:43;;;;;;;4.50;1.37;;;17.30;99.90;;;;;;5088022;28;20229;-81
2022/09/15 05:34:11;;;;;;;2.17;1.40;;;17.40;99.90;;;;;;5094934;28;20335;-81
2022/09/15 05:36:41;;;;;;;1.40;1.30;;;17.40;99.90;;;;;;5095583;28;20238;-80
2022/09/15 05:39:09;;;;;;;1.73;1.30;;;17.40;99.90;;;;;;5075940;28;20212;-80
2022/09/15 05:41:37;;;;;;;1.93;1.30;;;17.40;99.90;;;;;;5073333;28;20210;-79
2022/09/15 05:44:05;;;;;;;2.63;1.40;;;17.40;99.90;;;;;;5073422;28;20231;-82
2022/09/15 05:46:33;;;;;;;2.17;1.17;;;17.40;99.90;;;;;;5082386;28;20222;-80
2022/09/15 05:49:01;;;;;;;3.10;1.20;;;17.40;99.90;;;;;;5093319;28;20729;-82
2022/09/15 05:51:29;;;;;;;2.03;1.03;;;17.50;99.90;;;;;;5093994;28;20211;-84
2022/09/15 05:53:59;;;;;;;3.00;1.40;;;17.50;99.90;;;;;;5093777;28;20211;-81
2022/09/15 05:56:27;;;;;;;2.23;1.30;;;17.50;99.90;;;;;;5092893;28;20214;-82
2022/09/15 05:58:56;;;;;;;2.00;1.00;;;17.50;99.90;;;;;;5093259;28;20207;-83
2022/09/15 06:01:26;;;;;;;3.20;1.37;;;17.60;99.90;;;;;;5093499;28;20214;-79
2022/09/15 06:03:54;;;;;;;2.27;1.10;;;17.60;99.90;;;;;;5093570;28;20229;-83
2022/09/15 06:06:23;;;;;;;1.67;1.30;;;17.60;99.90;;;;;;5093678;28;20211;-79
2022/09/15 06:08:55;;;;;;;4.57;1.30;;;17.60;99.90;;;;;;5093172;28;20222;-78
2022/09/15 06:11:29;;;;;;;1.10;1.00;;;17.70;99.90;;;;;;5093480;28;20209;-80
2022/09/15 06:13:59;;;;;;;2.93;1.20;;;17.60;99.90;;;;;;5091862;28;20205;-79
2022/09/15 06:16:27;;;;;;;1.47;1.00;;;17.70;99.90;;;;;;5086475;28;20203;-78
2022/09/15 06:18:55;;;;;;;1.80;0.90;;;17.70;99.90;;;;;;5088040;28;20226;-80
2022/09/15 06:21:25;;;;;;;1.77;1.00;;;17.70;99.90;;;;;;5090194;28;20217;-86
2022/09/15 06:23:54;;;;;;;1.67;1.10;;;17.70;99.90;;;;;;5073460;28;20208;-77
2022/09/15 06:26:23;;;;;;;1.27;1.00;;;17.70;99.90;;;;;;5073842;28;20211;-85
2022/09/15 06:28:54;;;;;;;1.90;1.00;;;17.70;99.90;;;;;;5073420;28;20235;-80
2022/09/15 06:31:24;;;;;;;1.23;0.90;;;17.70;99.90;;;;;;5088426;28;20605;-80
2022/09/15 06:33:54;;;;;;;2.23;1.20;;;17.70;99.90;;;;;;5093232;28;20294;-79
2022/09/15 06:36:24;;;;;;;2.53;1.00;;;17.70;99.90;;;;;;5090877;28;20633;-81
2022/09/15 06:38:53;;;;;;;0.97;0.97;;;17.70;99.90;;;;;;5092018;28;20605;-79
2022/09/15 06:41:21;;;;;;;1.83;1.10;;;17.80;99.90;;;;;;5092894;28;20230;-81
2022/09/15 06:43:49;;;;;;;2.90;0.73;;;17.80;99.90;;;;;;5092657;28;20570;-78
2022/09/15 06:46:20;;;;;;;2.07;1.00;;;17.80;99.90;;;;;;5092247;28;20585;-77
2022/09/15 06:48:50;;;;;;;2.40;1.00;;;17.80;99.90;;;;;;5072036;28;20248;-79
2022/09/15 06:51:20;;;;;;;2.23;1.20;;;17.80;99.90;;;;;;5069933;28;20307;-85
2022/09/15 06:53:49;;;;;;;2.83;1.20;;;17.90;99.90;;;;;;5067097;28;20223;-80
2022/09/15 06:56:19;;;;;;;2.20;1.10;;;17.90;99.90;;;;;;5056651;28;20212;-85
2022/09/15 06:58:48;;;;;;;2.13;1.00;;;18.00;99.90;;;;;;5062519;28;20206;-82
2022/09/15 07:01:22;;;;;;;0.97;0.83;;;18.00;99.90;;;;;;5052306;28;20204;-80
2022/09/15 07:03:51;;;;;;;3.40;1.00;;;18.10;99.90;;;;;;5052581;28;20195;-81
2022/09/15 07:06:20;;;;;;;1.97;1.00;;;18.10;99.90;;;;;;5060816;28;20212;-80
2022/09/15 07:08:48;;;;;;;1.13;0.90;;;18.20;99.90;;;;;;5059356;28;20239;-81
2022/09/15 07:11:17;;;;;;;3.67;1.30;;;18.20;99.90;;;;;;5065188;28;20305;-81
2022/09/15 07:13:45;;;;;;;2.47;1.00;;;18.30;99.90;;;;;;5065360;28;20219;-81
2022/09/15 07:16:14;;;;;;;2.30;1.30;;;18.30;99.90;;;;;;5061177;28;20215;-78
2022/09/15 07:18:45;;;;;;;2.80;0.80;;;18.30;99.90;;;;;;5071962;28;20235;-79
2022/09/15 07:21:14;;;;;;;1.70;1.10;;;18.20;99.90;;;;;;5072125;28;20215;-77
2022/09/15 07:23:43;;;;;;;1.70;1.00;;;18.20;99.90;;;;;;5071749;28;20207;-78
2022/09/15 07:26:14;;;;;;;1.00;0.90;;;18.10;99.90;;;;;;5052272;28;20227;-81
2022/09/15 07:28:44;;;;;;;1.77;0.90;;;18.10;99.90;;;;;;5052019;28;20578;-85
2022/09/15 07:31:15;;;;;;;3.80;1.27;;;18.00;99.90;;;;;;5062319;28;20235;-86
2022/09/15 07:33:45;;;;;;;2.57;1.20;;;18.00;99.90;;;;;;5058332;28;20566;-82
2022/09/15 07:36:14;;;;;;;2.17;1.20;;;17.80;99.90;;;;;;5051645;28;20208;-81
2022/09/15 07:38:44;;;;;;;1.43;1.00;;;17.60;99.90;;;;;;5051651;28;20204;-83
2022/09/15 07:41:14;;;;;;;1.50;1.10;;;17.60;99.90;;;;;;5056260;28;20226;-82
2022/09/15 07:43:46;;;;;;;2.53;1.10;;;17.60;99.90;;;;;;5072114;28;20614;-82
2022/09/15 07:46:15;;;;;;;2.73;1.30;;;17.50;99.90;;;;;;5071720;28;20231;-81
2022/09/15 07:48:48;;;;;;;3.83;1.20;;;17.60;99.90;;;;;;5068622;28;20348;-82
2022/09/15 07:51:17;;;;;;;1.60;1.10;;;17.80;99.90;;;;;;5074616;28;20235;-82
2022/09/15 07:53:46;;;;;;;1.20;1.10;;;17.80;99.90;;;;;;5074919;28;20669;-80
2022/09/15 07:56:16;;;;;;;1.63;1.10;;;17.90;99.90;;;;;;5075324;28;20235;-80
2022/09/15 07:58:44;;;;;;;2.10;1.53;;;17.80;99.90;;;;;;5074555;28;20203;-82
2022/09/15 08:01:13;;;;;;;2.77;1.10;;;17.90;99.90;;;;;;5055270;28;20210;-80
2022/09/15 08:03:42;;;;;;;1.73;1.20;;;18.00;99.90;;;;;;5055582;28;20250;-79
2022/09/15 08:06:13;;;;;;;2.40;1.20;;;18.20;99.90;;;;;;5073500;28;20204;-81
2022/09/15 08:08:42;;;;;;;2.83;1.10;;;18.30;99.90;;;;;;5076218;28;20227;-80
2022/09/15 08:11:13;;;;;;;1.70;1.00;;;18.40;99.90;;;;;;5080804;28;20203;-79
2022/09/15 08:13:46;;;;;;;2.57;1.13;;;18.40;99.90;;;;;;5081781;28;20214;-81
2022/09/15 08:16:16;;;;;;;1.70;1.00;;;18.60;99.90;;;;;;5079676;28;20302;-83
2022/09/15 08:18:45;;;;;;;2.73;0.90;;;18.70;99.90;;;;;;5082019;28;20200;-79
2022/09/15 08:21:19;;;;;;;2.03;1.10;;;18.90;99.90;;;;;;5068268;28;20226;-81
2022/09/15 08:23:50;;;;;;;1.33;1.00;;;19.00;99.90;;;;;;5055348;28;20193;-81
2022/09/15 08:26:19;;;;;;;1.87;1.20;;;19.00;99.90;;;;;;5055222;28;20219;-80
2022/09/15 08:28:48;;;;;;;1.30;1.00;;;19.30;99.90;;;;;;5068212;28;20587;-82
2022/09/15 08:31:17;;;;;;;3.10;1.10;;;19.70;99.90;;;;;;5067421;28;20603;-82
2022/09/15 08:33:48;;;;;;;0.97;0.97;;;20.00;99.90;;;;;;5054614;28;20286;-80
2022/09/15 08:36:18;;;;;;;1.67;1.07;;;20.20;99.90;;;;;;5054180;28;20198;-82
2022/09/15 08:38:46;;;;;;;6.47;1.30;;;20.10;99.90;;;;;;5060947;28;20203;-82
2022/09/15 08:41:19;;;;;;;4.80;1.20;;;20.60;99.90;;;;;;5074519;28;20208;-79
2022/09/15 08:43:55;;;;;;;3.80;1.50;;;21.00;99.90;;;;;;5074278;28;20269;-83
2022/09/15 08:46:28;;;;;;;2.93;1.13;;;21.30;99.90;;;;;;5074037;28;20219;-84
2022/09/15 08:49:03;;;;;;;2.63;1.00;;;21.00;99.90;;;;;;5065115;28;20648;-85
2022/09/15 08:51:42;;;;;;;4.20;1.43;;;20.70;99.90;;;;;;5074023;28;20650;-82
2022/09/15 08:54:17;;;;;;;5.27;1.30;;;20.70;99.90;;;;;;5071248;28;20207;-80
2022/09/15 08:56:45;;;;;;;3.70;1.10;;;21.20;99.90;;;;;;5058223;28;20203;-86
2022/09/15 08:59:15;;;;;;;3.60;1.13;;;22.10;99.90;;;;;;5053967;28;20208;-81
2022/09/15 09:02:06;;;;;;;5.73;1.30;;;22.20;99.90;;;;;;5054484;28;20224;-77
2022/09/15 09:04:51;;;;;;;2.50;1.03;;;22.80;99.90;;;;;;5071856;28;20227;-83
2022/09/15 09:07:39;;;;;;;2.87;1.10;;;22.90;99.90;;;;;;5075741;28;20261;-87
2022/09/15 09:10:16;;;;;;;1.40;1.10;;;22.80;99.90;;;;;;5073970;28;20235;-84
2022/09/15 09:13:05;;;;;;;2.53;1.07;;;22.90;99.90;;;;;;5072902;28;20207;-81
2022/09/15 09:15:43;;;;;;;2.47;1.30;;;22.70;99.90;;;;;;5074261;28;20219;-84
2022/09/15 09:18:51;;;;;;;3.67;1.27;;;22.80;99.90;;;;;;5074106;28;20202;-80
2022/09/15 09:21:25;;;;;;;1.50;0.77;;;23.10;99.90;;;;;;5054531;28;20215;-83
2022/09/15 09:24:02;;;;;;;2.80;1.00;;;24.20;99.90;;;;;;5055148;28;20312;-88
2022/09/15 09:26:34;;;;;;;3.53;1.30;;;24.60;99.90;;;;;;5053844;28;20548;-84
2022/09/15 09:29:11;;;;;;;3.60;1.33;;;24.50;99.90;;;;;;5054252;28;20678;-81
2022/09/15 09:31:40;;;;;;;2.57;1.17;;;24.60;99.90;;;;;;5068775;28;20212;-82
2022/09/15 09:34:20;;;;;;;3.20;1.20;;;23.60;99.90;;;;;;5054806;28;20219;-80
2022/09/15 09:36:54;;;;;;;1.17;1.03;;;22.80;99.90;;;;;;5053828;28;20200;-82
2022/09/15 09:39:24;;;;;;;2.30;1.10;;;22.30;99.90;;;;;;5053319;28;20191;-83
2022/09/15 09:41:54;;;;;;;2.43;1.20;;;22.30;99.90;;;;;;5053534;28;20572;-82
2022/09/15 09:44:30;;;;;;;3.37;1.10;;;21.90;99.90;;;;;;5053471;28;20219;-81
2022/09/15 09:46:59;;;;;;;1.40;1.07;;;22.10;99.90;;;;;;5064868;28;20329;-83
2022/09/15 09:49:33;;;;;;;2.67;1.20;;;22.00;99.90;;;;;;5063574;28;20223;-83
2022/09/15 09:52:03;;;;;;;2.83;1.40;;;21.50;99.90;;;;;;5073605;28;20211;-82
2022/09/15 09:54:34;;;;;;;3.63;1.40;;;21.30;99.90;;;;;;5064781;28;20220;-80
2022/09/15 09:57:30;;;;;;;2.57;1.30;;;21.40;99.90;;;;;;5067097;28;20319;-83
2022/09/15 09:59:58;;;;;;;3.80;1.43;;;21.20;99.90;;;;;;5037269;28;20211;-82
2022/09/15 10:02:27;;;;;;;4.83;1.20;;;21.20;99.90;;;;;;5073431;28;20207;-83
2022/09/15 10:05:16;;;;;;;2.27;1.20;;;21.10;99.90;;;;;;5057099;28;20299;-82
2022/09/15 10:07:44;;;;;;;1.97;1.10;;;21.00;99.90;;;;;;5054073;28;20196;-78
2022/09/15 10:10:31;;;;;;;1.63;0.90;;;22.00;99.90;;;;;;5069265;28;20228;-84
2022/09/15 10:13:02;;;;;;;4.50;1.27;;;22.70;99.90;;;;;;5092656;28;20199;-79
2022/09/15 10:15:32;;;;;;;4.80;1.30;;;24.00;99.90;;;;;;5072352;28;20290;-80
2022/09/15 10:18:01;;;;;;;1.93;1.10;;;25.00;99.90;;;;;;5075120;28;20211;-81
2022/09/15 10:20:34;;;;;;;1.83;1.20;;;25.90;99.90;;;;;;5067470;28;20204;-79
2022/09/15 10:23:05;;;;;;;1.95;1.10;;;27.10;99.90;;;;;;5055096;28;20208;-81
2022/09/15 10:25:37;;;;;;;3.13;1.38;;;26.90;99.90;;;;;;5073431;28;20218;-85
2022/09/15 10:28:27;;;;;;;2.15;1.38;;;26.90;99.90;;;;;;5073103;28;20192;-81
2022/09/15 10:31:04;;;;;;;2.75;1.25;;;26.90;99.90;;;;;;5073312;28;20239;-79
2022/09/15 10:33:35;;;;;;;1.70;1.02;;;26.40;99.90;;;;;;5072469;28;20296;-82
2022/09/15 10:36:06;;;;;;;3.28;1.10;;;25.50;99.90;;;;;;5072279;28;20203;-83
2022/09/15 10:38:43;;;;;;;5.00;1.70;;;25.90;99.90;;;;;;5058870;28;20371;-81
2022/09/15 10:41:23;;;;;;;2.67;1.07;;;25.10;99.90;;;;;;5052701;28;20261;-79
2022/09/15 10:44:21;;;;;;;1.33;0.93;;;24.60;99.90;;;;;;5063052;28;20211;-82
2022/09/15 10:46:58;;;;;;;3.50;1.30;;;23.60;99.90;;;;;;5071071;28;20215;-82
2022/09/15 10:49:55;;;;;;;2.53;1.03;;;22.90;99.90;;;;;;5072080;28;20215;-84
2022/09/15 10:52:33;;;;;;;3.60;1.20;;;22.50;99.90;;;;;;5071891;28;20207;-82
2022/09/15 10:55:19;;;;;;;6.00;1.20;;;22.40;99.90;;;;;;5063460;28;20616;-79
2022/09/15 10:58:23;;;;;;;5.70;1.27;;;22.50;99.90;;;;;;5052197;28;20266;-82
2022/09/15 11:01:00;;;;;;;2.63;1.30;;;23.50;99.90;;;;;;5061615;28;20661;-82
2022/09/15 11:03:48;;;;;;;2.70;1.10;;;24.10;99.90;;;;;;5072582;28;20282;-83
2022/09/15 11:06:21;;;;;;;3.60;1.00;;;23.70;99.90;;;;;;5072319;28;20696;-82
2022/09/15 11:09:04;;;;;;;4.27;1.47;;;23.10;99.90;;;;;;5069096;28;20199;-83
2022/09/15 11:11:45;;;;;;;6.77;1.90;;;22.60;99.90;;;;;;5052406;28;20211;-83
2022/09/15 11:14:31;;;;;;;7.77;2.50;;;20.90;99.90;;;;;;5051874;28;20192;-80
2022/09/15 11:17:12;;;;;;;4.33;1.47;;;20.00;99.90;;;;;;5051790;28;20204;-82
2022/09/15 11:19:52;;;;;;;4.10;1.70;;;19.40;99.90;;;;;;5051740;28;20192;-83
2022/09/15 11:22:23;;;;;;;7.57;1.90;;;19.20;99.90;;;;;;5051905;28;20211;-82
2022/09/15 11:24:56;;;;;;;3.23;1.57;;;18.80;99.90;;;;;;5056351;28;20207;-82
2022/09/15 11:27:28;;;;;;;4.17;1.47;;;18.80;99.90;;;;;;5055792;28;20543;-81
2022/09/15 11:30:04;;;;;;;2.40;1.40;;;18.80;99.90;;;;;;5055956;28;20293;-82
2022/09/15 11:32:39;;;;;;;12.33;7.17;;;19.10;99.90;;;;;;5055863;28;20204;-82
2022/09/15 11:35:28;;;;;;;2.47;1.50;;;19.40;99.90;;;;;;5055406;28;20196;-80
2022/09/15 11:38:03;;;;;;;3.50;1.43;;;19.90;99.90;;;;;;5055414;28;20693;-79
2022/09/15 11:40:37;;;;;;;1.77;1.30;;;20.80;99.90;;;;;;5055692;28;20195;-82
2022/09/15 11:43:16;;;;;;;2.20;1.20;;;21.20;99.90;;;;;;5054971;28;20208;-83
2022/09/15 11:45:49;;;;;;;2.00;1.20;;;21.40;99.90;;;;;;5062242;28;20669;-85
2022/09/15 11:48:22;;;;;;;1.03;0.93;;;21.30;99.90;;;;;;5075446;28;20219;-84
2022/09/15 11:50:55;;;;;;;1.20;0.90;;;20.80;99.90;;;;;;5074592;28;20216;-83
2022/09/15 11:53:32;;;;;;;1.43;0.90;;;20.10;99.90;;;;;;5076067;28;20231;-81
2022/09/15 11:56:09;;;;;;;1.20;1.10;;;19.90;99.90;;;;;;5075601;28;20207;-84
2022/09/15 11:58:54;;;;;;;1.33;0.80;;;19.70;99.90;;;;;;5068337;28;20574;-86
2022/09/15 12:01:26;;;;;;;2.27;0.93;;;19.10;99.90;;;;;;5057896;28;20192;-82
2022/09/15 12:03:59;;;;;;;2.07;1.33;;;18.60;99.90;;;;;;5070990;28;20241;-83
2022/09/15 12:06:32;;;;;;;3.63;1.53;;;18.10;99.90;;;;;;5075058;28;20657;-84
2022/09/15 12:09:03;;;;;;;8.67;1.53;;;17.90;99.90;;;;;;5075224;28;20202;-83
2022/09/15 12:11:35;;;;;;;2.37;1.30;;;18.20;99.90;;;;;;5075950;28;20238;-85
2022/09/15 12:14:04;;;;;;;2.50;1.13;;;18.30;99.90;;;;;;5075783;28;20207;-83
2022/09/15 12:16:34;;;;;;;1.93;0.90;;;18.40;99.90;;;;;;5055290;28;20239;-84
2022/09/15 12:19:11;;;;;;;1.47;1.10;;;18.30;99.90;;;;;;5055561;28;20215;-84
2022/09/15 12:21:47;;;;;;;2.47;1.10;;;18.30;99.90;;;;;;5067346;28;20207;-84
2022/09/15 12:24:22;;;;;;;2.67;1.10;;;18.50;99.90;;;;;;5056446;28;20658;-84
2022/09/15 12:26:51;;;;;;;1.03;0.97;;;18.70;99.90;;;;;;5055434;28;20201;-83
2022/09/15 12:29:40;;;;;;;1.63;1.20;;;18.80;99.90;;;;;;5054686;28;20204;-83
2022/09/15 12:32:34;;;;;;;1.30;1.10;;;19.00;99.90;;;;;;5057885;28;20220;-85
2022/09/15 12:35:05;;;;;;;1.43;1.20;;;18.80;99.90;;;;;;5041309;28;20204;-85
2022/09/15 12:37:43;;;;;;;3.57;1.17;;;18.70;99.90;;;;;;5056428;28;20303;-83
2022/09/15 12:40:34;;;;;;;3.90;1.67;;;18.60;99.90;;;;;;5056156;28;20307;-83
2022/09/15 12:43:03;;;;;;;5.57;1.80;;;18.40;99.90;;;;;;5057313;28;20250;-84
2022/09/15 12:45:35;;;;;;;3.97;1.83;;;18.30;99.90;;;;;;5054157;28;20218;-82
2022/09/15 12:48:07;;;;;;;3.47;1.77;;;18.30;99.90;;;;;;5064684;28;20211;-83
2022/09/15 12:50:37;;;;;;;36.77;4.87;;;18.40;99.90;;;;;;5073653;28;20231;-83
2022/09/15 12:53:19;;;;;;;12.47;2.90;;;18.50;99.90;;;;;;5072893;28;20223;-84
2022/09/15 12:55:50;;;;;;;2.00;1.60;;;18.40;99.90;;;;;;5054636;28;20828;-85
2022/09/15 12:58:21;;;;;;;3.20;1.90;;;18.30;99.90;;;;;;5066164;28;20282;-82
2022/09/15 13:00:49;;;;;;;3.30;1.57;;;18.20;99.90;;;;;;5074220;28;20200;-85
2022/09/15 13:04:23;;;;;;;4.77;1.90;;;18.10;99.90;;;;;;5078316;28;20215;-85
2022/09/15 13:07:21;;;;;;;4.03;1.90;;;18.20;99.90;;;;;;5074126;28;20210;-85
2022/09/15 13:09:58;;;;;;;3.63;1.67;;;18.20;99.90;;;;;;5061638;28;20298;-85
2022/09/15 13:12:40;;;;;;;3.77;1.73;;;18.30;99.90;;;;;;5053911;28;20234;-84
2022/09/15 13:15:14;;;;;;;2.87;1.63;;;18.40;99.90;;;;;;5065705;28;20662;-84